sensor_id;sensor_type;location;lat;lon;timestamp;pressure;altitude;pressure_sealevel;temperature;humidity
55301;BME280;58302;51.446;-2.000;2023-05-16T00:00:38;101616.44;;;6.29;100.00
55301;BME280;58302;51.446;-2.000;2023-05-16T00:03:04;101614.97;;;6.20;100.00
55301;BME280;58302;51.446;-2.000;2023-05-16T00:05:30;101618.13;;;6.10;100.00
55301;BME280;58302;51.446;-2.000;2023-05-16T00:07:56;101615.38;;;6.03;100.00
55301;BME280;58302;51.446;-2.000;2023-05-16T00:10:22;101618.09;;;5.97;100.00
55301;BME280;58302;51.446;-2.000;2023-05-16T00:12:48;101619.75;;;5.98;100.00
55301;BME280;58302;51.446;-2.000;2023-05-16T00:15:17;101611.84;;;5.96;100.00
55301;BME280;58302;51.446;-2.000;2023-05-16T00:17:45;101612.00;;;5.81;100.00
55301;BME280;58302;51.446;-2.000;2023-05-16T00:20:14;101610.97;;;5.76;100.00
55301;BME280;58302;51.446;-2.000;2023-05-16T00:22:42;101610.94;;;5.69;100.00
55301;BME280;58302;51.446;-2.000;2023-05-16T00:25:08;101614.69;;;5.68;100.00
55301;BME280;58302;51.446;-2.000;2023-05-16T00:27:35;101613.81;;;5.54;100.00
55301;BME280;58302;51.446;-2.000;2023-05-16T00:30:04;101612.34;;;5.45;100.00
55301;BME280;58302;51.446;-2.000;2023-05-16T00:32:31;101610.84;;;5.29;100.00
55301;BME280;58302;51.446;-2.000;2023-05-16T00:34:57;101611.97;;;5.00;100.00
55301;BME280;58302;51.446;-2.000;2023-05-16T00:37:23;101614.91;;;4.71;100.00
55301;BME280;58302;51.446;-2.000;2023-05-16T00:39:49;101607.94;;;4.48;100.00
55301;BME280;58302;51.446;-2.000;2023-05-16T00:42:15;101610.63;;;4.48;100.00
55301;BME280;58302;51.446;-2.000;2023-05-16T00:44:41;101615.03;;;4.56;100.00
55301;BME280;58302;51.446;-2.000;2023-05-16T00:47:07;101612.75;;;4.60;100.00
55301;BME280;58302;51.446;-2.000;2023-05-16T00:49:33;101613.25;;;4.70;100.00
55301;BME280;58302;51.446;-2.000;2023-05-16T00:51:59;101611.81;;;4.74;100.00
55301;BME280;58302;51.446;-2.000;2023-05-16T00:54:25;101615.94;;;4.70;100.00
55301;BME280;58302;51.446;-2.000;2023-05-16T00:56:54;101627.50;;;4.64;100.00
55301;BME280;58302;51.446;-2.000;2023-05-16T00:59:22;101618.72;;;4.55;100.00
55301;BME280;58302;51.446;-2.000;2023-05-16T01:01:50;101622.91;;;4.58;100.00
55301;BME280;58302;51.446;-2.000;2023-05-16T01:04:17;101607.81;;;4.63;100.00
55301;BME280;58302;51.446;-2.000;2023-05-16T01:06:44;101617.31;;;4.59;100.00
55301;BME280;58302;51.446;-2.000;2023-05-16T01:09:12;101615.63;;;4.52;100.00
55301;BME280;58302;51.446;-2.000;2023-05-16T01:14:45;101612.78;;;4.32;100.00
55301;BME280;58302;51.446;-2.000;2023-05-16T01:17:28;101608.63;;;4.29;100.00
55301;BME280;58302;51.446;-2.000;2023-05-16T01:20:08;101604.91;;;4.30;100.00
55301;BME280;58302;51.446;-2.000;2023-05-16T01:25:34;101604.41;;;4.20;100.00
55301;BME280;58302;51.446;-2.000;2023-05-16T01:28:04;101603.41;;;4.00;100.00
55301;BME280;58302;51.446;-2.000;2023-05-16T01:30:37;101604.84;;;3.74;100.00
55301;BME280;58302;51.446;-2.000;2023-05-16T01:33:03;101589.47;;;3.47;100.00
55301;BME280;58302;51.446;-2.000;2023-05-16T01:35:31;101602.84;;;3.25;100.00
55301;BME280;58302;51.446;-2.000;2023-05-16T01:43:09;101611.72;;;2.75;100.00
55301;BME280;58302;51.446;-2.000;2023-05-16T01:45:38;101617.34;;;2.65;100.00
55301;BME280;58302;51.446;-2.000;2023-05-16T01:48:12;101612.13;;;2.63;100.00
55301;BME280;58302;51.446;-2.000;2023-05-16T01:50:44;101623.72;;;2.64;100.00
55301;BME280;58302;51.446;-2.000;2023-05-16T01:53:14;101620.09;;;2.57;100.00
55301;BME280;58302;51.446;-2.000;2023-05-16T01:55:47;101620.84;;;2.51;100.00
55301;BME280;58302;51.446;-2.000;2023-05-16T01:58:16;101625.72;;;2.47;100.00
55301;BME280;58302;51.446;-2.000;2023-05-16T02:00:42;101622.84;;;2.34;100.00
55301;BME280;58302;51.446;-2.000;2023-05-16T02:03:09;101627.81;;;2.22;100.00
55301;BME280;58302;51.446;-2.000;2023-05-16T02:05:35;101630.41;;;2.16;100.00
55301;BME280;58302;51.446;-2.000;2023-05-16T02:08:01;101627.88;;;2.14;100.00
55301;BME280;58302;51.446;-2.000;2023-05-16T02:10:27;101619.56;;;2.09;100.00
55301;BME280;58302;51.446;-2.000;2023-05-16T02:12:54;101628.97;;;2.05;100.00
55301;BME280;58302;51.446;-2.000;2023-05-16T02:15:20;101615.28;;;2.00;100.00
55301;BME280;58302;51.446;-2.000;2023-05-16T02:17:46;101619.31;;;1.96;100.00
55301;BME280;58302;51.446;-2.000;2023-05-16T02:20:12;101624.88;;;1.94;100.00
55301;BME280;58302;51.446;-2.000;2023-05-16T02:22:38;101623.03;;;1.95;100.00
55301;BME280;58302;51.446;-2.000;2023-05-16T02:25:05;101629.03;;;1.97;100.00
55301;BME280;58302;51.446;-2.000;2023-05-16T02:27:31;101631.94;;;2.10;100.00
55301;BME280;58302;51.446;-2.000;2023-05-16T02:29:57;101625.69;;;2.18;100.00
55301;BME280;58302;51.446;-2.000;2023-05-16T02:32:23;101633.91;;;2.16;100.00
55301;BME280;58302;51.446;-2.000;2023-05-16T02:34:49;101631.47;;;2.06;100.00
55301;BME280;58302;51.446;-2.000;2023-05-16T02:37:15;101628.72;;;1.92;100.00
55301;BME280;58302;51.446;-2.000;2023-05-16T02:39:41;101626.31;;;1.82;100.00
55301;BME280;58302;51.446;-2.000;2023-05-16T02:42:07;101625.81;;;1.78;100.00
55301;BME280;58302;51.446;-2.000;2023-05-16T02:44:33;101632.84;;;1.79;100.00
55301;BME280;58302;51.446;-2.000;2023-05-16T02:46:59;101634.06;;;1.77;100.00
55301;BME280;58302;51.446;-2.000;2023-05-16T02:49:25;101632.91;;;1.71;100.00
55301;BME280;58302;51.446;-2.000;2023-05-16T02:51:51;101635.59;;;1.71;100.00
55301;BME280;58302;51.446;-2.000;2023-05-16T02:54:18;101627.38;;;1.73;100.00
55301;BME280;58302;51.446;-2.000;2023-05-16T02:56:44;101631.22;;;1.70;100.00
55301;BME280;58302;51.446;-2.000;2023-05-16T02:59:10;101627.13;;;1.60;100.00
55301;BME280;58302;51.446;-2.000;2023-05-16T03:01:36;101628.69;;;1.54;100.00
55301;BME280;58302;51.446;-2.000;2023-05-16T03:04:02;101633.72;;;1.49;100.00
55301;BME280;58302;51.446;-2.000;2023-05-16T03:06:28;101627.06;;;1.45;100.00
55301;BME280;58302;51.446;-2.000;2023-05-16T03:08:57;101622.16;;;1.48;100.00
55301;BME280;58302;51.446;-2.000;2023-05-16T03:11:23;101631.56;;;1.44;100.00
55301;BME280;58302;51.446;-2.000;2023-05-16T03:13:49;101622.41;;;1.39;100.00
55301;BME280;58302;51.446;-2.000;2023-05-16T03:16:15;101624.78;;;1.34;100.00
55301;BME280;58302;51.446;-2.000;2023-05-16T03:18:42;101622.50;;;1.22;100.00
55301;BME280;58302;51.446;-2.000;2023-05-16T03:21:08;101627.84;;;1.22;100.00
55301;BME280;58302;51.446;-2.000;2023-05-16T03:23:34;101627.97;;;1.29;100.00
55301;BME280;58302;51.446;-2.000;2023-05-16T03:26:00;101628.94;;;1.36;100.00
55301;BME280;58302;51.446;-2.000;2023-05-16T03:28:26;101632.75;;;1.42;100.00
55301;BME280;58302;51.446;-2.000;2023-05-16T03:30:52;101626.75;;;1.40;100.00
55301;BME280;58302;51.446;-2.000;2023-05-16T03:33:18;101620.25;;;1.34;100.00
55301;BME280;58302;51.446;-2.000;2023-05-16T03:35:44;101622.81;;;1.27;100.00
55301;BME280;58302;51.446;-2.000;2023-05-16T03:38:11;101624.03;;;1.17;100.00
55301;BME280;58302;51.446;-2.000;2023-05-16T03:40:37;101623.88;;;1.10;100.00
55301;BME280;58302;51.446;-2.000;2023-05-16T03:43:03;101628.56;;;1.08;100.00
55301;BME280;58302;51.446;-2.000;2023-05-16T03:45:29;101625.56;;;1.11;100.00
55301;BME280;58302;51.446;-2.000;2023-05-16T03:47:56;101626.72;;;1.09;100.00
55301;BME280;58302;51.446;-2.000;2023-05-16T03:50:22;101632.44;;;1.05;100.00
55301;BME280;58302;51.446;-2.000;2023-05-16T03:52:48;101630.78;;;0.96;100.00
55301;BME280;58302;51.446;-2.000;2023-05-16T03:55:14;101632.81;;;0.86;100.00
55301;BME280;58302;51.446;-2.000;2023-05-16T03:57:40;101623.50;;;0.74;100.00
55301;BME280;58302;51.446;-2.000;2023-05-16T04:00:07;101636.22;;;0.72;100.00
55301;BME280;58302;51.446;-2.000;2023-05-16T04:02:34;101629.00;;;0.81;100.00
55301;BME280;58302;51.446;-2.000;2023-05-16T04:04:59;101618.66;;;0.77;100.00
55301;BME280;58302;51.446;-2.000;2023-05-16T04:07:25;101631.34;;;0.84;100.00
55301;BME280;58302;51.446;-2.000;2023-05-16T04:09:53;101629.97;;;0.88;100.00
55301;BME280;58302;51.446;-2.000;2023-05-16T04:12:19;101634.81;;;0.92;100.00
55301;BME280;58302;51.446;-2.000;2023-05-16T04:14:45;101634.16;;;0.90;100.00
55301;BME280;58302;51.446;-2.000;2023-05-16T04:17:11;101643.66;;;0.93;100.00
55301;BME280;58302;51.446;-2.000;2023-05-16T04:19:37;101640.16;;;1.00;100.00
55301;BME280;58302;51.446;-2.000;2023-05-16T04:22:04;101637.59;;;1.07;100.00
55301;BME280;58302;51.446;-2.000;2023-05-16T04:24:30;101639.28;;;1.08;100.00
55301;BME280;58302;51.446;-2.000;2023-05-16T04:26:56;101645.06;;;1.20;100.00
55301;BME280;58302;51.446;-2.000;2023-05-16T04:29:22;101645.06;;;1.20;100.00
55301;BME280;58302;51.446;-2.000;2023-05-16T04:31:48;101646.91;;;1.19;100.00
55301;BME280;58302;51.446;-2.000;2023-05-16T04:34:14;101649.41;;;1.21;100.00
55301;BME280;58302;51.446;-2.000;2023-05-16T04:36:40;101652.63;;;1.16;100.00
55301;BME280;58302;51.446;-2.000;2023-05-16T04:39:07;101650.66;;;1.10;100.00
55301;BME280;58302;51.446;-2.000;2023-05-16T04:41:33;101656.34;;;1.07;100.00
55301;BME280;58302;51.446;-2.000;2023-05-16T04:44:03;101652.19;;;1.04;100.00
55301;BME280;58302;51.446;-2.000;2023-05-16T04:46:29;101652.53;;;1.01;100.00
55301;BME280;58302;51.446;-2.000;2023-05-16T04:48:55;101649.31;;;1.06;100.00
55301;BME280;58302;51.446;-2.000;2023-05-16T04:51:21;101648.97;;;1.09;100.00
55301;BME280;58302;51.446;-2.000;2023-05-16T04:53:47;101645.31;;;1.10;100.00
55301;BME280;58302;51.446;-2.000;2023-05-16T04:56:13;101654.13;;;1.19;100.00
55301;BME280;58302;51.446;-2.000;2023-05-16T04:58:39;101656.28;;;1.23;100.00
55301;BME280;58302;51.446;-2.000;2023-05-16T05:01:05;101658.25;;;1.29;100.00
55301;BME280;58302;51.446;-2.000;2023-05-16T05:03:31;101659.22;;;1.37;100.00
55301;BME280;58302;51.446;-2.000;2023-05-16T05:05:58;101650.78;;;1.48;100.00
55301;BME280;58302;51.446;-2.000;2023-05-16T05:08:24;101649.00;;;1.71;100.00
55301;BME280;58302;51.446;-2.000;2023-05-16T05:10:50;101659.22;;;1.91;100.00
55301;BME280;58302;51.446;-2.000;2023-05-16T05:13:16;101665.72;;;1.96;100.00
55301;BME280;58302;51.446;-2.000;2023-05-16T05:15:42;101658.16;;;2.00;100.00
55301;BME280;58302;51.446;-2.000;2023-05-16T05:18:08;101659.78;;;2.09;100.00
55301;BME280;58302;51.446;-2.000;2023-05-16T05:20:34;101672.28;;;2.17;100.00
55301;BME280;58302;51.446;-2.000;2023-05-16T05:23:00;101666.00;;;2.24;100.00
55301;BME280;58302;51.446;-2.000;2023-05-16T05:25:26;101672.34;;;2.31;100.00
55301;BME280;58302;51.446;-2.000;2023-05-16T05:27:52;101673.75;;;2.42;100.00
55301;BME280;58302;51.446;-2.000;2023-05-16T05:30:18;101675.16;;;2.53;100.00
55301;BME280;58302;51.446;-2.000;2023-05-16T05:32:44;101681.56;;;2.67;100.00
55301;BME280;58302;51.446;-2.000;2023-05-16T05:35:10;101680.91;;;2.79;100.00
55301;BME280;58302;51.446;-2.000;2023-05-16T05:37:36;101686.66;;;2.91;100.00
55301;BME280;58302;51.446;-2.000;2023-05-16T05:40:03;101689.09;;;3.01;100.00
55301;BME280;58302;51.446;-2.000;2023-05-16T05:42:29;101701.03;;;3.13;100.00
55301;BME280;58302;51.446;-2.000;2023-05-16T05:44:55;101698.44;;;3.20;100.00
55301;BME280;58302;51.446;-2.000;2023-05-16T05:47:21;101697.78;;;3.32;100.00
55301;BME280;58302;51.446;-2.000;2023-05-16T05:49:47;101695.66;;;3.42;100.00
55301;BME280;58302;51.446;-2.000;2023-05-16T05:52:13;101705.28;;;3.52;100.00
55301;BME280;58302;51.446;-2.000;2023-05-16T05:54:39;101699.44;;;3.63;100.00
55301;BME280;58302;51.446;-2.000;2023-05-16T05:57:05;101702.06;;;3.78;100.00
55301;BME280;58302;51.446;-2.000;2023-05-16T05:59:32;101700.09;;;3.86;100.00
55301;BME280;58302;51.446;-2.000;2023-05-16T06:01:58;101706.84;;;3.97;100.00
55301;BME280;58302;51.446;-2.000;2023-05-16T06:04:24;101698.25;;;4.08;100.00
55301;BME280;58302;51.446;-2.000;2023-05-16T06:06:50;101708.72;;;4.18;100.00
55301;BME280;58302;51.446;-2.000;2023-05-16T06:09:16;101698.25;;;4.30;100.00
55301;BME280;58302;51.446;-2.000;2023-05-16T06:11:42;101707.06;;;4.45;100.00
55301;BME280;58302;51.446;-2.000;2023-05-16T06:14:10;101708.03;;;4.59;100.00
55301;BME280;58302;51.446;-2.000;2023-05-16T06:16:36;101709.81;;;4.73;100.00
55301;BME280;58302;51.446;-2.000;2023-05-16T06:19:04;101709.88;;;4.86;100.00
55301;BME280;58302;51.446;-2.000;2023-05-16T06:21:30;101713.53;;;5.00;100.00
55301;BME280;58302;51.446;-2.000;2023-05-16T06:23:58;101719.19;;;5.12;100.00
55301;BME280;58302;51.446;-2.000;2023-05-16T06:26:24;101705.78;;;5.25;100.00
55301;BME280;58302;51.446;-2.000;2023-05-16T06:28:50;101711.22;;;5.38;100.00
55301;BME280;58302;51.446;-2.000;2023-05-16T06:31:16;101707.34;;;5.54;100.00
55301;BME280;58302;51.446;-2.000;2023-05-16T06:33:42;101715.06;;;5.64;100.00
55301;BME280;58302;51.446;-2.000;2023-05-16T06:36:07;101714.94;;;5.85;100.00
55301;BME280;58302;51.446;-2.000;2023-05-16T06:38:33;101709.28;;;6.28;100.00
55301;BME280;58302;51.446;-2.000;2023-05-16T06:40:59;101710.34;;;7.51;100.00
55301;BME280;58302;51.446;-2.000;2023-05-16T06:43:25;101693.22;;;8.65;100.00
55301;BME280;58302;51.446;-2.000;2023-05-16T06:45:51;101694.38;;;9.86;100.00
55301;BME280;58302;51.446;-2.000;2023-05-16T06:48:17;101681.13;;;10.85;100.00
55301;BME280;58302;51.446;-2.000;2023-05-16T06:50:48;101660.16;;;11.61;100.00
55301;BME280;58302;51.446;-2.000;2023-05-16T06:53:14;101645.13;;;11.99;100.00
55301;BME280;58302;51.446;-2.000;2023-05-16T06:55:40;101652.56;;;12.03;100.00
55301;BME280;58302;51.446;-2.000;2023-05-16T06:58:06;101663.97;;;12.34;100.00
55301;BME280;58302;51.446;-2.000;2023-05-16T07:00:32;101671.25;;;12.62;100.00
55301;BME280;58302;51.446;-2.000;2023-05-16T07:02:58;101672.06;;;12.62;100.00
55301;BME280;58302;51.446;-2.000;2023-05-16T07:05:24;101665.97;;;12.38;100.00
55301;BME280;58302;51.446;-2.000;2023-05-16T07:07:50;101669.84;;;12.26;100.00
55301;BME280;58302;51.446;-2.000;2023-05-16T07:10:16;101672.56;;;12.43;100.00
55301;BME280;58302;51.446;-2.000;2023-05-16T07:12:42;101679.16;;;12.97;100.00
55301;BME280;58302;51.446;-2.000;2023-05-16T07:15:08;101679.16;;;13.36;100.00
55301;BME280;58302;51.446;-2.000;2023-05-16T07:17:34;101676.09;;;13.32;100.00
55301;BME280;58302;51.446;-2.000;2023-05-16T07:20:00;101683.66;;;13.47;100.00
55301;BME280;58302;51.446;-2.000;2023-05-16T07:22:26;101678.25;;;13.30;100.00
55301;BME280;58302;51.446;-2.000;2023-05-16T07:24:52;101682.06;;;12.74;100.00
55301;BME280;58302;51.446;-2.000;2023-05-16T07:27:21;101694.84;;;12.90;100.00
55301;BME280;58302;51.446;-2.000;2023-05-16T07:29:47;101686.38;;;13.25;100.00
55301;BME280;58302;51.446;-2.000;2023-05-16T07:32:13;101682.28;;;12.89;100.00
55301;BME280;58302;51.446;-2.000;2023-05-16T07:34:39;101678.75;;;12.72;100.00
55301;BME280;58302;51.446;-2.000;2023-05-16T07:37:05;101685.88;;;13.28;100.00
55301;BME280;58302;51.446;-2.000;2023-05-16T07:39:38;101692.22;;;12.45;100.00
55301;BME280;58302;51.446;-2.000;2023-05-16T07:42:08;101686.69;;;12.39;100.00
55301;BME280;58302;51.446;-2.000;2023-05-16T07:44:34;101692.03;;;12.18;100.00
55301;BME280;58302;51.446;-2.000;2023-05-16T07:47:00;101679.88;;;12.08;100.00
55301;BME280;58302;51.446;-2.000;2023-05-16T07:49:26;101693.28;;;12.10;100.00
55301;BME280;58302;51.446;-2.000;2023-05-16T07:51:52;101690.16;;;12.35;100.00
55301;BME280;58302;51.446;-2.000;2023-05-16T07:54:18;101692.94;;;12.23;100.00
55301;BME280;58302;51.446;-2.000;2023-05-16T07:56:44;101688.59;;;12.56;100.00
55301;BME280;58302;51.446;-2.000;2023-05-16T07:59:10;101690.72;;;12.87;100.00
55301;BME280;58302;51.446;-2.000;2023-05-16T08:01:36;101691.00;;;12.69;100.00
55301;BME280;58302;51.446;-2.000;2023-05-16T08:04:03;101686.63;;;13.07;100.00
55301;BME280;58302;51.446;-2.000;2023-05-16T08:06:29;101685.88;;;13.28;100.00
55301;BME280;58302;51.446;-2.000;2023-05-16T08:08:55;101687.47;;;13.07;100.00
55301;BME280;58302;51.446;-2.000;2023-05-16T08:11:21;101703.72;;;12.97;100.00
55301;BME280;58302;51.446;-2.000;2023-05-16T08:13:48;101694.25;;;13.22;100.00
55301;BME280;58302;51.446;-2.000;2023-05-16T08:16:14;101694.69;;;12.97;100.00
55301;BME280;58302;51.446;-2.000;2023-05-16T08:18:40;101706.97;;;13.16;100.00
55301;BME280;58302;51.446;-2.000;2023-05-16T08:21:07;101699.44;;;13.23;100.00
55301;BME280;58302;51.446;-2.000;2023-05-16T08:23:34;101697.13;;;13.32;100.00
55301;BME280;58302;51.446;-2.000;2023-05-16T08:26:01;101690.75;;;13.70;100.00
55301;BME280;58302;51.446;-2.000;2023-05-16T08:28:28;101694.66;;;13.74;100.00
55301;BME280;58302;51.446;-2.000;2023-05-16T08:30:54;101693.50;;;13.70;100.00
55301;BME280;58302;51.446;-2.000;2023-05-16T08:33:20;101693.09;;;13.61;100.00
55301;BME280;58302;51.446;-2.000;2023-05-16T08:35:46;101699.91;;;13.59;100.00
55301;BME280;58302;51.446;-2.000;2023-05-16T08:38:14;101688.03;;;13.48;100.00
55301;BME280;58302;51.446;-2.000;2023-05-16T08:40:41;101691.84;;;13.69;100.00
55301;BME280;58302;51.446;-2.000;2023-05-16T08:43:07;101697.94;;;13.76;100.00
55301;BME280;58302;51.446;-2.000;2023-05-16T08:45:35;101693.09;;;14.69;100.00
55301;BME280;58302;51.446;-2.000;2023-05-16T08:48:00;101699.72;;;14.73;100.00
55301;BME280;58302;51.446;-2.000;2023-05-16T08:50:29;101702.28;;;14.26;100.00
55301;BME280;58302;51.446;-2.000;2023-05-16T08:52:56;101700.31;;;14.48;100.00
55301;BME280;58302;51.446;-2.000;2023-05-16T08:55:23;101706.47;;;13.80;100.00
55301;BME280;58302;51.446;-2.000;2023-05-16T08:57:51;101692.63;;;14.45;100.00
55301;BME280;58302;51.446;-2.000;2023-05-16T09:00:18;101703.31;;;15.26;100.00
55301;BME280;58302;51.446;-2.000;2023-05-16T09:02:44;101697.34;;;14.55;100.00
55301;BME280;58302;51.446;-2.000;2023-05-16T09:05:12;101705.22;;;14.19;100.00
55301;BME280;58302;51.446;-2.000;2023-05-16T09:07:39;101701.56;;;13.60;100.00
55301;BME280;58302;51.446;-2.000;2023-05-16T09:10:06;101703.72;;;12.80;100.00
55301;BME280;58302;51.446;-2.000;2023-05-16T09:12:33;101711.66;;;12.48;100.00
55301;BME280;58302;51.446;-2.000;2023-05-16T09:15:03;101709.75;;;12.49;100.00
55301;BME280;58302;51.446;-2.000;2023-05-16T09:17:42;101704.38;;;13.65;100.00
55301;BME280;58302;51.446;-2.000;2023-05-16T09:22:37;101698.84;;;14.68;100.00
55301;BME280;58302;51.446;-2.000;2023-05-16T09:25:03;101700.75;;;15.10;100.00
55301;BME280;58302;51.446;-2.000;2023-05-16T09:27:30;101699.50;;;15.27;100.00
55301;BME280;58302;51.446;-2.000;2023-05-16T09:29:59;101691.94;;;15.50;100.00
55301;BME280;58302;51.446;-2.000;2023-05-16T09:32:25;101689.59;;;15.74;100.00
55301;BME280;58302;51.446;-2.000;2023-05-16T09:34:52;101690.81;;;16.39;100.00
55301;BME280;58302;51.446;-2.000;2023-05-16T09:37:19;101689.78;;;15.62;100.00
55301;BME280;58302;51.446;-2.000;2023-05-16T09:39:50;101699.88;;;14.30;100.00
55301;BME280;58302;51.446;-2.000;2023-05-16T09:42:18;101700.56;;;13.93;100.00
55301;BME280;58302;51.446;-2.000;2023-05-16T09:44:52;101701.69;;;14.19;100.00
55301;BME280;58302;51.446;-2.000;2023-05-16T09:47:20;101697.06;;;15.36;100.00
55301;BME280;58302;51.446;-2.000;2023-05-16T09:49:51;101697.91;;;16.04;100.00
55301;BME280;58302;51.446;-2.000;2023-05-16T09:52:17;101707.28;;;15.03;100.00
55301;BME280;58302;51.446;-2.000;2023-05-16T09:54:45;101705.88;;;14.96;100.00
55301;BME280;58302;51.446;-2.000;2023-05-16T09:57:17;101705.28;;;16.14;100.00
55301;BME280;58302;51.446;-2.000;2023-05-16T09:59:44;101693.50;;;17.16;100.00
55301;BME280;58302;51.446;-2.000;2023-05-16T10:02:11;101695.13;;;17.22;100.00
55301;BME280;58302;51.446;-2.000;2023-05-16T10:04:37;101698.47;;;16.63;100.00
55301;BME280;58302;51.446;-2.000;2023-05-16T10:07:04;101698.72;;;16.25;100.00
55301;BME280;58302;51.446;-2.000;2023-05-16T10:09:32;101701.31;;;15.64;100.00
55301;BME280;58302;51.446;-2.000;2023-05-16T10:12:03;101700.13;;;15.40;100.00
55301;BME280;58302;51.446;-2.000;2023-05-16T10:14:36;101700.72;;;15.57;100.00
55301;BME280;58302;51.446;-2.000;2023-05-16T10:17:03;101701.13;;;15.23;100.00
55301;BME280;58302;51.446;-2.000;2023-05-16T10:19:31;101692.66;;;15.98;100.00
55301;BME280;58302;51.446;-2.000;2023-05-16T10:22:03;101695.72;;;16.52;100.00
55301;BME280;58302;51.446;-2.000;2023-05-16T10:24:38;101696.25;;;16.70;100.00
55301;BME280;58302;51.446;-2.000;2023-05-16T10:27:08;101707.50;;;16.12;100.00
55301;BME280;58302;51.446;-2.000;2023-05-16T10:29:37;101698.72;;;16.10;100.00
55301;BME280;58302;51.446;-2.000;2023-05-16T10:32:04;101714.50;;;15.20;100.00
55301;BME280;58302;51.446;-2.000;2023-05-16T10:34:31;101703.53;;;14.72;100.00
55301;BME280;58302;51.446;-2.000;2023-05-16T10:36:58;101701.50;;;14.95;100.00
55301;BME280;58302;51.446;-2.000;2023-05-16T10:39:24;101698.72;;;15.37;100.00
55301;BME280;58302;51.446;-2.000;2023-05-16T10:41:50;101701.22;;;15.49;100.00
55301;BME280;58302;51.446;-2.000;2023-05-16T10:44:17;101701.06;;;15.71;100.00
55301;BME280;58302;51.446;-2.000;2023-05-16T10:46:45;101693.47;;;16.03;100.00
55301;BME280;58302;51.446;-2.000;2023-05-16T10:49:23;101698.94;;;15.78;100.00
55301;BME280;58302;51.446;-2.000;2023-05-16T10:52:10;101692.97;;;16.47;100.00
55301;BME280;58302;51.446;-2.000;2023-05-16T10:54:41;101694.94;;;16.88;100.00
55301;BME280;58302;51.446;-2.000;2023-05-16T10:57:11;101696.69;;;17.48;100.00
55301;BME280;58302;51.446;-2.000;2023-05-16T10:59:45;101691.97;;;17.59;100.00
55301;BME280;58302;51.446;-2.000;2023-05-16T11:02:31;101697.34;;;17.84;100.00
55301;BME280;58302;51.446;-2.000;2023-05-16T11:04:59;101693.72;;;18.33;100.00
55301;BME280;58302;51.446;-2.000;2023-05-16T11:07:34;101696.47;;;19.26;100.00
55301;BME280;58302;51.446;-2.000;2023-05-16T11:10:09;101693.75;;;18.67;100.00
55301;BME280;58302;51.446;-2.000;2023-05-16T11:17:48;101699.94;;;18.83;100.00
55301;BME280;58302;51.446;-2.000;2023-05-16T11:20:29;101699.00;;;18.30;100.00
55301;BME280;58302;51.446;-2.000;2023-05-16T11:25:44;101688.31;;;17.04;100.00
55301;BME280;58302;51.446;-2.000;2023-05-16T11:28:13;101699.97;;;17.45;100.00
55301;BME280;58302;51.446;-2.000;2023-05-16T11:30:43;101695.13;;;17.17;100.00
55301;BME280;58302;51.446;-2.000;2023-05-16T11:33:10;101696.91;;;17.57;100.00
55301;BME280;58302;51.446;-2.000;2023-05-16T11:35:37;101693.28;;;17.67;100.00
55301;BME280;58302;51.446;-2.000;2023-05-16T11:38:03;101688.31;;;17.79;100.00
55301;BME280;58302;51.446;-2.000;2023-05-16T11:40:29;101686.50;;;18.77;100.00
55301;BME280;58302;51.446;-2.000;2023-05-16T11:42:59;101684.53;;;18.48;100.00
55301;BME280;58302;51.446;-2.000;2023-05-16T11:45:25;101678.81;;;18.00;100.00
55301;BME280;58302;51.446;-2.000;2023-05-16T11:47:51;101682.84;;;16.32;100.00
55301;BME280;58302;51.446;-2.000;2023-05-16T11:50:22;101692.41;;;16.25;100.00
55301;BME280;58302;51.446;-2.000;2023-05-16T11:52:52;101689.44;;;16.77;100.00
55301;BME280;58302;51.446;-2.000;2023-05-16T11:55:20;101679.78;;;18.25;100.00
55301;BME280;58302;51.446;-2.000;2023-05-16T11:57:50;101676.81;;;19.56;100.00
55301;BME280;58302;51.446;-2.000;2023-05-16T12:00:18;101675.91;;;20.36;100.00
55301;BME280;58302;51.446;-2.000;2023-05-16T12:02:45;101677.16;;;19.92;100.00
55301;BME280;58302;51.446;-2.000;2023-05-16T12:05:15;101671.16;;;18.94;100.00
55301;BME280;58302;51.446;-2.000;2023-05-16T12:07:42;101678.63;;;18.31;100.00
55301;BME280;58302;51.446;-2.000;2023-05-16T12:10:14;101672.50;;;17.45;100.00
55301;BME280;58302;51.446;-2.000;2023-05-16T12:12:44;101675.91;;;17.17;100.00
55301;BME280;58302;51.446;-2.000;2023-05-16T12:15:11;101665.75;;;18.21;100.00
55301;BME280;58302;51.446;-2.000;2023-05-16T12:17:39;101672.31;;;19.17;100.00
55301;BME280;58302;51.446;-2.000;2023-05-16T12:20:08;101670.72;;;20.16;100.00
55301;BME280;58302;51.446;-2.000;2023-05-16T12:22:39;101660.38;;;19.70;100.00
55301;BME280;58302;51.446;-2.000;2023-05-16T12:25:20;101663.59;;;19.53;100.00
55301;BME280;58302;51.446;-2.000;2023-05-16T12:27:46;101663.59;;;18.81;100.00
55301;BME280;58302;51.446;-2.000;2023-05-16T12:30:12;101671.06;;;18.47;100.00
55301;BME280;58302;51.446;-2.000;2023-05-16T12:32:41;101664.09;;;19.36;100.00
55301;BME280;58302;51.446;-2.000;2023-05-16T12:35:09;101673.97;;;20.37;100.00
55301;BME280;58302;51.446;-2.000;2023-05-16T12:37:36;101661.72;;;20.75;100.00
55301;BME280;58302;51.446;-2.000;2023-05-16T12:40:02;101670.50;;;20.12;100.00
55301;BME280;58302;51.446;-2.000;2023-05-16T12:42:29;101671.91;;;20.10;100.00
55301;BME280;58302;51.446;-2.000;2023-05-16T12:44:55;101674.97;;;19.70;100.00
55301;BME280;58302;51.446;-2.000;2023-05-16T12:47:21;101668.97;;;20.06;100.00
55301;BME280;58302;51.446;-2.000;2023-05-16T12:49:47;101661.31;;;20.82;98.00
55301;BME280;58302;51.446;-2.000;2023-05-16T12:52:20;101654.16;;;20.67;98.69
55301;BME280;58302;51.446;-2.000;2023-05-16T12:54:47;101656.63;;;19.98;100.00
55301;BME280;58302;51.446;-2.000;2023-05-16T12:57:13;101662.69;;;19.82;100.00